createdAt,value
2019-04-20T00:00:39.728Z,40.94
2019-04-20T00:03:05.674Z,40.18
2019-04-20T00:05:35.061Z,39.72
2019-04-20T00:08:08.878Z,40.18
2019-04-20T00:10:45.231Z,39.53
2019-04-20T00:13:19.435Z,39.10
2019-04-20T00:15:36.900Z,39.01
2019-04-20T00:18:07.714Z,38.48
2019-04-20T00:20:40.294Z,38.78
2019-04-20T00:23:36.891Z,38.46
2019-04-20T00:26:32.312Z,38.21
2019-04-20T00:29:07.201Z,38.86
2019-04-20T00:31:39.229Z,38.19
2019-04-20T00:34:02.679Z,37.72
2019-04-20T00:36:22.290Z,37.30
2019-04-20T00:38:55.084Z,36.77
2019-04-20T00:41:23.083Z,36.54
2019-04-20T00:43:53.358Z,36.75
2019-04-20T00:46:30.430Z,36.68
2019-04-20T00:49:02.786Z,36.69
2019-04-20T00:51:39.521Z,36.69
2019-04-20T00:53:57.043Z,36.96
2019-04-20T00:56:26.500Z,36.71
2019-04-20T00:59:09.256Z,36.81
2019-04-20T01:01:50.262Z,36.46
2019-04-20T01:04:14.812Z,36.71
2019-04-20T01:07:14.108Z,37.16
2019-04-20T01:10:05.013Z,36.72
2019-04-20T01:12:36.584Z,37.65
2019-04-20T01:15:09.911Z,37.92
2019-04-20T01:17:37.941Z,37.52
2019-04-20T01:20:09.213Z,37.63
2019-04-20T01:22:44.599Z,38.91
2019-04-20T01:25:17.256Z,39.61
2019-04-20T01:27:59.605Z,39.28
2019-04-20T01:30:20.764Z,41.05
2019-04-20T01:32:57.547Z,38.50
2019-04-20T01:35:31.632Z,39.10
2019-04-20T01:38:02.656Z,39.68
2019-04-20T01:40:14.860Z,40.24
2019-04-20T01:42:44.543Z,41.55
2019-04-20T01:45:21.731Z,42.67
2019-04-20T01:47:49.268Z,43.51
2019-04-20T01:50:21.031Z,44.85
2019-04-20T01:52:58.305Z,43.68
2019-04-20T01:55:38.608Z,44.24
2019-04-20T01:58:17.593Z,43.73
2019-04-20T02:00:45.211Z,43.73
2019-04-20T02:03:40.264Z,43.38
2019-04-20T02:06:09.961Z,43.26
2019-04-20T02:08:37.727Z,44.32
2019-04-20T02:11:09.133Z,41.49
2019-04-20T02:13:47.106Z,40.86
2019-04-20T02:16:19.136Z,40.52
2019-04-20T02:19:00.489Z,39.91
2019-04-20T02:21:27.613Z,39.55
2019-04-20T02:23:49.691Z,41.45
2019-04-20T02:26:14.189Z,41.03
2019-04-20T02:29:07.969Z,41.98
2019-04-20T02:31:55.151Z,39.54
2019-04-20T02:34:39.159Z,39.79
2019-04-20T02:37:13.969Z,43.68
2019-04-20T02:47:13.998Z,47.23
2019-04-20T02:54:46.454Z,47.05
2019-04-20T02:59:59.539Z,49.57
2019-04-20T03:02:05.768Z,49.12
2019-04-20T03:04:28.330Z,49.07
2019-04-20T03:07:04.162Z,48.49
2019-04-20T03:09:40.374Z,49.70
2019-04-20T03:12:29.107Z,50.30
2019-04-20T03:14:36.209Z,50.80
2019-04-20T03:17:18.258Z,51.29
2019-04-20T03:19:38.647Z,52.18
2019-04-20T03:22:16.117Z,53.30
2019-04-20T03:27:15.735Z,56.02
2019-04-20T03:30:04.163Z,57.10
2019-04-20T03:35:14.901Z,57.44
2019-04-20T03:37:45.785Z,56.90
2019-04-20T03:40:07.117Z,57.52
2019-04-20T03:42:20.216Z,58.03
2019-04-20T03:44:57.910Z,59.29
2019-04-20T03:47:31.466Z,60.36
2019-04-20T03:50:10.735Z,60.67
2019-04-20T03:52:54.241Z,61.31
2019-04-20T03:55:50.171Z,61.57
2019-04-20T03:58:37.650Z,59.69
2019-04-20T04:01:44.499Z,60.09
2019-04-20T04:04:10.635Z,59.61
2019-04-20T04:06:26.492Z,61.77
2019-04-20T04:09:02.389Z,62.08
2019-04-20T04:11:35.040Z,62.39
2019-04-20T04:13:50.400Z,61.80
2019-04-20T04:16:22.029Z,62.30
2019-04-20T04:19:01.401Z,63.24
2019-04-20T04:21:38.284Z,62.34
2019-04-20T04:24:07.400Z,62.26
2019-04-20T04:26:39.505Z,62.26
2019-04-20T04:29:18.055Z,62.72
2019-04-20T04:31:50.807Z,61.92
2019-04-20T04:34:12.463Z,62.17
2019-04-20T04:36:44.218Z,62.54
2019-04-20T04:39:15.417Z,62.62
2019-04-20T04:41:51.227Z,62.34
2019-04-20T04:44:11.033Z,61.89
2019-04-20T04:46:27.150Z,61.96
2019-04-20T04:49:05.343Z,60.33
2019-04-20T04:51:38.563Z,60.86
2019-04-20T04:54:03.698Z,60.60
2019-04-20T04:56:29.092Z,60.70
2019-04-20T04:59:00.195Z,60.67
2019-04-20T05:01:38.605Z,60.67
2019-04-20T05:04:25.190Z,58.90
2019-04-20T05:06:54.744Z,59.37
2019-04-20T05:09:16.812Z,60.89
2019-04-20T05:11:44.891Z,60.15
2019-04-20T05:14:23.562Z,60.71
2019-04-20T05:17:01.867Z,60.61
2019-04-20T05:19:41.262Z,60.54
2019-04-20T05:22:19.377Z,60.11
2019-04-20T05:25:10.857Z,59.93
2019-04-20T05:27:50.885Z,60.45
2019-04-20T05:30:05.698Z,61.25
2019-04-20T05:32:44.859Z,60.60
2019-04-20T05:35:26.790Z,61.44
2019-04-20T05:38:18.807Z,60.81
2019-04-20T05:40:27.515Z,60.74
2019-04-20T05:43:09.195Z,60.72
2019-04-20T05:45:28.422Z,60.29
2019-04-20T05:48:04.570Z,59.68
2019-04-20T05:50:40.212Z,59.81
2019-04-20T05:53:07.762Z,59.96
2019-04-20T05:55:40.176Z,59.57
2019-04-20T05:58:13.860Z,58.44
2019-04-20T06:00:48.382Z,57.60
2019-04-20T06:03:11.027Z,56.30
2019-04-20T06:05:55.192Z,55.73
2019-04-20T06:08:23.518Z,53.83
2019-04-20T06:10:45.580Z,54.08
2019-04-20T06:13:17.521Z,54.26
2019-04-20T06:16:03.865Z,53.85
2019-04-20T06:18:36.366Z,52.42
2019-04-20T06:21:21.308Z,52.21
2019-04-20T06:23:50.882Z,51.87
2019-04-20T06:28:46.676Z,48.76
2019-04-20T06:31:26.594Z,47.90
2019-04-20T06:34:25.918Z,47.90
2019-04-20T06:36:56.066Z,47.46
2019-04-20T06:39:37.955Z,46.42
2019-04-20T06:44:22.833Z,45.00
2019-04-20T06:46:59.123Z,44.16
2019-04-20T06:52:23.665Z,41.57
2019-04-20T06:54:58.185Z,40.89
2019-04-20T06:57:37.228Z,39.38
2019-04-20T07:00:10.207Z,39.88
2019-04-20T07:02:37.267Z,39.51
2019-04-20T07:05:05.384Z,39.68
2019-04-20T07:07:41.961Z,38.46
2019-04-20T07:10:13.363Z,37.90
2019-04-20T07:12:33.047Z,37.50
2019-04-20T07:14:55.515Z,36.62
2019-04-20T07:20:46.122Z,37.63
2019-04-20T07:23:18.959Z,37.07
2019-04-20T07:25:43.238Z,35.29
2019-04-20T07:28:12.518Z,33.31
2019-04-20T07:30:41.503Z,30.64
2019-04-20T07:33:18.714Z,28.64
2019-04-20T07:35:40.166Z,27.15
2019-04-20T07:38:23.402Z,25.97
2019-04-20T07:40:38.334Z,25.41
2019-04-20T07:43:07.908Z,25.72
2019-04-20T07:45:37.626Z,26.04
2019-04-20T07:48:16.726Z,26.15
2019-04-20T07:50:37.465Z,25.55
2019-04-20T07:53:12.315Z,25.07
2019-04-20T07:55:52.328Z,24.35
2019-04-20T07:58:09.931Z,24.73
2019-04-20T08:01:02.563Z,24.93
2019-04-20T08:04:06.385Z,24.76
2019-04-20T08:06:18.086Z,25.50
2019-04-20T08:08:57.325Z,27.10
2019-04-20T08:11:26.729Z,28.09
2019-04-20T08:14:05.896Z,28.14
2019-04-20T08:17:06.674Z,28.58
2019-04-20T08:19:16.344Z,28.80
2019-04-20T08:21:37.369Z,28.39
2019-04-20T08:24:02.597Z,28.75
2019-04-20T08:26:23.308Z,28.94
2019-04-20T08:29:00.356Z,28.93
2019-04-20T08:31:56.224Z,28.93
2019-04-20T08:34:35.148Z,29.25
2019-04-20T08:37:01.058Z,29.25
2019-04-20T08:39:47.648Z,28.97
2019-04-20T08:42:06.267Z,29.06
2019-04-20T08:44:56.977Z,28.52
2019-04-20T08:47:18.256Z,28.46
2019-04-20T08:49:41.327Z,28.66
2019-04-20T08:52:31.952Z,28.48
2019-04-20T08:54:34.415Z,28.20
2019-04-20T08:56:55.322Z,27.92
2019-04-20T08:59:21.083Z,28.68
2019-04-20T09:01:51.070Z,28.70
2019-04-20T09:04:32.500Z,28.34
2019-04-20T09:07:04.482Z,28.42
2019-04-20T09:12:09.094Z,28.66
2019-04-20T09:14:25.319Z,28.39
2019-04-20T09:17:07.279Z,28.09
2019-04-20T09:19:44.574Z,27.64
2019-04-20T09:22:34.163Z,27.73
2019-04-20T09:25:19.268Z,28.04
2019-04-20T09:27:31.437Z,27.30
2019-04-20T09:30:16.009Z,27.51
2019-04-20T09:32:39.600Z,27.51
2019-04-20T09:35:20.222Z,27.53
2019-04-20T09:37:47.357Z,27.81
2019-04-20T09:40:40.496Z,27.54
2019-04-20T09:43:00.247Z,27.51
2019-04-20T09:45:40.107Z,27.62
2019-04-20T09:48:11.521Z,27.49
2019-04-20T09:50:53.128Z,27.43
2019-04-20T09:53:22.132Z,26.91
2019-04-20T09:55:57.660Z,26.77
2019-04-20T09:58:18.033Z,26.42
2019-04-20T10:01:00.832Z,26.45
2019-04-20T10:03:14.033Z,27.14
2019-04-20T10:05:43.430Z,26.77
2019-04-20T10:08:13.677Z,26.64
2019-04-20T10:10:45.597Z,27.03
2019-04-20T10:13:13.429Z,27.00
2019-04-20T10:15:43.635Z,26.83
2019-04-20T10:18:12.598Z,27.03
2019-04-20T10:20:43.404Z,26.84
2019-04-20T10:23:12.517Z,26.62
2019-04-20T10:25:42.605Z,26.66
2019-04-20T10:28:11.840Z,26.14
2019-04-20T10:30:40.984Z,26.22
2019-04-20T10:33:10.074Z,26.01
2019-04-20T10:35:39.421Z,26.04
2019-04-20T10:38:13.782Z,26.11
2019-04-20T10:40:53.018Z,26.09
2019-04-20T10:43:14.213Z,26.30
2019-04-20T10:45:44.719Z,26.31
2019-04-20T10:48:15.134Z,25.98
2019-04-20T10:50:45.110Z,25.21
2019-04-20T10:53:15.130Z,25.67
2019-04-20T10:55:45.234Z,25.46
2019-04-20T10:58:15.598Z,25.40
2019-04-20T11:00:46.404Z,24.99
2019-04-20T11:03:17.642Z,24.96
2019-04-20T11:05:47.050Z,25.10
2019-04-20T11:08:16.839Z,25.00
2019-04-20T11:10:55.149Z,24.62
2019-04-20T11:13:17.222Z,24.24
2019-04-20T11:15:46.426Z,24.44
2019-04-20T11:18:15.623Z,24.58
2019-04-20T11:20:45.600Z,24.51
2019-04-20T11:23:15.840Z,23.89
2019-04-20T11:25:46.306Z,23.73
2019-04-20T11:28:16.619Z,23.99
2019-04-20T11:30:46.054Z,20.16
2019-04-20T11:33:16.122Z,20.19
2019-04-20T11:35:46.600Z,20.45
2019-04-20T11:38:17.335Z,19.76
2019-04-20T11:40:48.177Z,20.25
2019-04-20T11:43:17.841Z,20.29
2019-04-20T11:45:46.801Z,20.33
2019-04-20T11:48:15.896Z,19.61
2019-04-20T11:50:45.446Z,19.69
2019-04-20T11:53:15.328Z,19.71
2019-04-20T11:55:44.651Z,19.74
2019-04-20T11:58:14.212Z,19.92
2019-04-20T12:00:56.244Z,20.17
2019-04-20T12:03:28.246Z,20.22
2019-04-20T12:05:53.743Z,20.22
2019-04-20T12:08:22.850Z,20.46
2019-04-20T12:10:57.559Z,20.61
2019-04-20T12:13:22.726Z,20.65
2019-04-20T12:15:51.924Z,20.35
2019-04-20T12:18:20.851Z,20.64
2019-04-20T12:20:50.471Z,20.14
2019-04-20T12:23:20.243Z,20.04
2019-04-20T12:25:50.213Z,20.30
2019-04-20T12:28:19.866Z,20.65
2019-04-20T12:30:49.029Z,20.35
2019-04-20T12:33:18.023Z,20.37
2019-04-20T12:35:48.042Z,20.31
2019-04-20T12:38:17.245Z,20.65
2019-04-20T12:40:46.254Z,20.85
2019-04-20T12:43:15.263Z,21.12
2019-04-20T12:45:44.282Z,21.02
2019-04-20T12:48:13.559Z,21.03
2019-04-20T12:50:43.729Z,20.36
2019-04-20T12:53:12.917Z,19.79
2019-04-20T12:55:41.872Z,19.82
2019-04-20T12:58:10.828Z,19.92
2019-04-20T13:00:45.911Z,20.21
2019-04-20T13:03:15.278Z,20.46
2019-04-20T13:05:45.851Z,20.74
2019-04-20T13:08:23.273Z,20.39
2019-04-20T13:10:54.779Z,20.26
2019-04-20T13:13:46.208Z,19.95
2019-04-20T13:16:20.942Z,19.96
2019-04-20T13:18:59.377Z,19.11
2019-04-20T13:21:29.207Z,19.31
2019-04-20T13:23:58.688Z,18.50
2019-04-20T13:26:28.960Z,18.50
2019-04-20T13:28:59.157Z,17.67
2019-04-20T13:31:29.558Z,17.90
2019-04-20T13:33:59.169Z,17.79
2019-04-20T13:36:28.590Z,16.98
2019-04-20T13:38:59.371Z,16.68
2019-04-20T13:41:29.765Z,15.93
2019-04-20T13:44:01.246Z,16.37
2019-04-20T13:46:31.132Z,16.20
2019-04-20T13:49:00.771Z,15.64
2019-04-20T13:51:30.844Z,14.34
2019-04-20T13:54:01.475Z,14.11
2019-04-20T13:56:31.893Z,13.96
2019-04-20T13:59:05.834Z,13.98
2019-04-20T14:01:52.868Z,14.17
2019-04-20T14:04:46.780Z,14.00
2019-04-20T14:07:17.113Z,13.52
2019-04-20T14:09:47.788Z,13.78
2019-04-20T14:12:25.278Z,13.52
2019-04-20T14:14:48.865Z,12.94
2019-04-20T14:17:19.098Z,13.71
2019-04-20T14:19:49.405Z,13.53
2019-04-20T14:22:20.539Z,13.11
2019-04-20T14:24:51.013Z,12.98
2019-04-20T14:27:21.277Z,12.57
2019-04-20T14:29:50.885Z,13.00
2019-04-20T14:32:20.991Z,13.20
2019-04-20T14:34:51.171Z,13.26
2019-04-20T14:37:20.684Z,12.89
2019-04-20T14:39:50.264Z,12.70
2019-04-20T14:42:30.597Z,11.65
2019-04-20T14:44:50.149Z,12.26
2019-04-20T14:47:19.337Z,11.97
2019-04-20T14:49:48.669Z,12.38
2019-04-20T14:52:37.647Z,12.17
2019-04-20T14:55:07.850Z,11.88
2019-04-20T14:57:37.420Z,11.80
2019-04-20T15:00:19.414Z,12.22
2019-04-20T15:02:48.519Z,12.32
2019-04-20T15:05:17.474Z,11.82
2019-04-20T15:07:46.762Z,12.43
2019-04-20T15:10:16.227Z,12.43
2019-04-20T15:12:52.540Z,12.11
2019-04-20T15:15:16.703Z,12.37
2019-04-20T15:17:49.668Z,11.91
2019-04-20T15:20:29.726Z,12.13
2019-04-20T15:23:01.361Z,11.37
2019-04-20T15:25:31.597Z,11.85
2019-04-20T15:28:00.665Z,11.89
2019-04-20T15:30:29.929Z,11.90
2019-04-20T15:32:59.108Z,12.12
2019-04-20T15:35:28.256Z,12.55
2019-04-20T15:37:57.399Z,12.12
2019-04-20T15:40:26.980Z,12.03
2019-04-20T15:43:05.970Z,12.52
2019-04-20T15:45:27.367Z,12.56
2019-04-20T15:47:56.444Z,12.73
2019-04-20T15:50:25.706Z,13.02
2019-04-20T15:52:57.366Z,13.12
2019-04-20T15:55:31.012Z,12.98
2019-04-20T15:57:57.667Z,12.25
2019-04-20T16:00:26.861Z,12.43
2019-04-20T16:03:15.047Z,11.93
2019-04-20T16:05:58.976Z,11.72
2019-04-20T16:08:34.390Z,11.90
2019-04-20T16:11:04.938Z,12.14
2019-04-20T16:13:39.688Z,12.19
2019-04-20T16:16:05.995Z,12.63
2019-04-20T16:18:35.033Z,13.29
2019-04-20T16:21:10.195Z,12.78
2019-04-20T16:23:42.971Z,12.96
2019-04-20T16:26:31.620Z,12.83
2019-04-20T16:29:01.851Z,12.88
2019-04-20T16:31:31.060Z,12.84
2019-04-20T16:34:01.062Z,12.79
2019-04-20T16:36:30.548Z,12.45
2019-04-20T16:38:59.573Z,12.73
2019-04-20T16:41:28.642Z,12.77
2019-04-20T16:43:57.687Z,12.55
2019-04-20T16:46:28.017Z,12.82
2019-04-20T16:48:57.114Z,12.52
2019-04-20T16:51:26.986Z,12.60
2019-04-20T16:53:56.290Z,12.90
2019-04-20T16:56:26.532Z,12.71
2019-04-20T16:59:02.009Z,12.96
2019-04-20T17:01:27.536Z,13.02
2019-04-20T17:04:06.532Z,13.24
2019-04-20T17:06:29.699Z,13.48
2019-04-20T17:08:58.841Z,13.61
2019-04-20T17:11:27.781Z,13.93
2019-04-20T17:13:59.696Z,13.57
2019-04-20T17:16:27.963Z,13.75
2019-04-20T17:18:57.346Z,13.77
2019-04-20T17:21:28.987Z,13.70
2019-04-20T17:23:57.569Z,14.12
2019-04-20T17:26:34.809Z,14.09
2019-04-20T17:29:18.098Z,14.37
2019-04-20T17:32:15.789Z,14.40
2019-04-20T17:35:00.219Z,14.68
2019-04-20T17:37:15.555Z,14.49
2019-04-20T17:40:06.436Z,14.89
2019-04-20T17:42:30.802Z,14.95
2019-04-20T17:44:56.445Z,15.06
2019-04-20T17:47:37.335Z,15.08
2019-04-20T17:50:05.236Z,15.64
2019-04-20T17:52:41.502Z,15.22
2019-04-20T17:54:55.871Z,15.60
2019-04-20T17:57:25.453Z,16.06
2019-04-20T18:00:02.130Z,16.45
2019-04-20T18:02:58.991Z,16.48
2019-04-20T18:05:39.372Z,17.07
2019-04-20T18:08:13.525Z,17.51
2019-04-20T18:10:36.749Z,18.08
2019-04-20T18:12:54.002Z,18.62
2019-04-20T18:15:36.314Z,19.10
2019-04-20T18:18:35.309Z,19.32
2019-04-20T18:21:16.908Z,19.89
2019-04-20T18:23:49.570Z,20.15
2019-04-20T18:26:39.331Z,20.75
2019-04-20T18:29:22.653Z,20.77
2019-04-20T18:31:37.513Z,21.08
2019-04-20T18:34:16.051Z,21.79
2019-04-20T18:36:45.474Z,21.91
2019-04-20T18:39:16.251Z,22.12
2019-04-20T18:41:48.667Z,22.42
2019-04-20T18:44:14.908Z,22.49
2019-04-20T18:47:06.650Z,22.71
2019-04-20T18:49:33.888Z,22.87
2019-04-20T18:51:46.133Z,23.15
2019-04-20T18:54:22.130Z,23.72
2019-04-20T18:56:50.814Z,23.73
2019-04-20T18:59:19.030Z,24.24
2019-04-20T19:01:48.797Z,24.12
2019-04-20T19:04:19.703Z,24.72
2019-04-20T19:06:50.067Z,24.72
2019-04-20T19:09:24.961Z,24.96
2019-04-20T19:11:56.807Z,25.08
2019-04-20T19:14:35.638Z,25.41
2019-04-20T19:17:16.999Z,25.73
2019-04-20T19:19:52.879Z,25.94
2019-04-20T19:22:19.564Z,26.28
2019-04-20T19:24:49.756Z,26.42
2019-04-20T19:27:19.860Z,26.57
2019-04-20T19:29:57.148Z,26.99
2019-04-20T19:32:38.175Z,26.99
2019-04-20T19:35:01.307Z,27.50
2019-04-20T19:37:28.641Z,27.73
2019-04-20T19:40:04.452Z,27.96
2019-04-20T19:42:34.636Z,28.52
2019-04-20T19:45:08.825Z,28.26
2019-04-20T19:47:46.837Z,28.56
2019-04-20T19:50:28.287Z,28.87
2019-04-20T19:52:51.642Z,29.21
2019-04-20T19:55:16.107Z,29.26
2019-04-20T19:57:45.126Z,29.62
2019-04-20T19:59:59.819Z,29.91
2019-04-20T20:02:29.846Z,29.88
2019-04-20T20:05:06.305Z,29.88
2019-04-20T20:07:37.261Z,30.04
2019-04-20T20:10:04.378Z,29.92
2019-04-20T20:12:31.514Z,30.11
2019-04-20T20:15:01.675Z,30.11
2019-04-20T20:17:48.132Z,30.41
2019-04-20T20:20:26.056Z,30.82
2019-04-20T20:22:40.682Z,30.96
2019-04-20T20:25:03.124Z,31.17
2019-04-20T20:27:42.597Z,31.38
2019-04-20T20:30:11.999Z,31.41
2019-04-20T20:32:47.036Z,31.79
2019-04-20T20:35:13.444Z,32.58
2019-04-20T20:37:42.515Z,32.61
2019-04-20T20:40:15.787Z,32.68
2019-04-20T20:42:54.026Z,32.09
2019-04-20T20:45:21.038Z,31.94
2019-04-20T20:48:01.892Z,31.92
2019-04-20T20:50:32.651Z,31.88
2019-04-20T20:53:12.487Z,31.93
2019-04-20T20:55:40.249Z,31.93
2019-04-20T20:58:10.635Z,32.04
2019-04-20T21:00:43.313Z,31.76
2019-04-20T21:03:07.826Z,31.52
2019-04-20T21:05:35.685Z,31.60
2019-04-20T21:08:05.935Z,31.74
2019-04-20T21:10:40.486Z,31.91
2019-04-20T21:13:09.148Z,31.97
2019-04-20T21:15:38.223Z,31.83
2019-04-20T21:18:29.316Z,32.18
2019-04-20T21:20:55.133Z,32.37
2019-04-20T21:23:25.986Z,32.39
2019-04-20T21:25:59.084Z,32.24
2019-04-20T21:28:28.810Z,32.51
2019-04-20T21:31:05.137Z,32.15
2019-04-20T21:33:32.237Z,32.31
2019-04-20T21:36:00.779Z,32.31
2019-04-20T21:38:35.468Z,32.27
2019-04-20T21:41:07.482Z,32.49
2019-04-20T21:43:36.336Z,32.31
2019-04-20T21:46:05.452Z,32.28
2019-04-20T21:48:49.184Z,32.43
2019-04-20T21:51:21.201Z,32.40
2019-04-20T21:53:35.900Z,32.53
2019-04-20T21:56:06.428Z,32.61
2019-04-20T21:58:46.026Z,32.27
2019-04-20T22:01:16.098Z,32.78
2019-04-20T22:03:38.378Z,32.76
2019-04-20T22:06:08.956Z,32.81
2019-04-20T22:08:39.460Z,32.94
2019-04-20T22:11:08.669Z,32.87
2019-04-20T22:13:41.625Z,32.59
2019-04-20T22:16:11.097Z,32.96
2019-04-20T22:18:48.550Z,33.01
2019-04-20T22:21:21.855Z,33.28
2019-04-20T22:23:54.908Z,33.00
2019-04-20T22:26:24.317Z,32.58
2019-04-20T22:28:42.397Z,32.75
2019-04-20T22:31:11.970Z,32.21
2019-04-20T22:33:43.604Z,32.68
2019-04-20T22:36:13.130Z,32.39
2019-04-20T22:39:07.419Z,32.75
2019-04-20T22:41:40.688Z,33.33
2019-04-20T22:44:15.436Z,32.93
2019-04-20T22:46:42.265Z,33.06
2019-04-20T22:49:29.502Z,33.48
2019-04-20T22:51:52.002Z,33.94
2019-04-20T22:54:27.609Z,34.31
2019-04-20T22:56:54.905Z,33.61
2019-04-20T22:59:19.415Z,33.41
2019-04-20T23:01:51.657Z,33.70
2019-04-20T23:04:15.162Z,33.38
2019-04-20T23:06:48.520Z,33.50
2019-04-20T23:09:16.518Z,33.66
2019-04-20T23:11:45.796Z,33.44
2019-04-20T23:14:16.251Z,33.26
2019-04-20T23:16:49.237Z,33.41
2019-04-20T23:19:28.994Z,33.19
2019-04-20T23:21:53.184Z,33.53
2019-04-20T23:24:18.444Z,33.40
2019-04-20T23:26:49.032Z,33.51
2019-04-20T23:29:21.375Z,33.54
2019-04-20T23:31:55.543Z,34.01
2019-04-20T23:34:23.639Z,33.95
2019-04-20T23:36:50.867Z,33.98
2019-04-20T23:39:23.242Z,34.30
2019-04-20T23:41:57.063Z,34.40
2019-04-20T23:44:58.206Z,34.66
2019-04-20T23:47:55.236Z,34.52
2019-04-20T23:50:38.240Z,34.66
2019-04-20T23:53:08.018Z,34.64
2019-04-20T23:55:19.194Z,34.85
2019-04-20T23:57:53.499Z,35.14
